Time;durP1;ratioP1;P1;durP2;ratioP2;P2;SDS_P1;SDS_P2;PMS_P1;PMS_P2;Temp;Humidity;BMP_temperature;BMP_pressure;BME280_temperature;BME280_humidity;BME280_pressure;Samples;Min_cycle;Max_cycle;Signal;HPM_P1;HPM_P2
2023/01/03 00:00:40;;;;;;;65.80;33.40;;;;;;;4.41;100.00;102458.16;5053256;28;20464;-48
2023/01/03 00:03:06;;;;;;;55.20;29.88;;;;;;;4.39;100.00;102462.22;5053789;28;20071;-46
2023/01/03 00:05:34;;;;;;;59.17;32.17;;;;;;;4.32;100.00;102467.63;5052455;28;20060;-48
2023/01/03 00:07:59;;;;;;;55.95;30.23;;;;;;;4.31;100.00;102458.19;5053765;28;20385;-49
2023/01/03 00:10:24;;;;;;;53.15;33.15;;;;;;;4.23;100.00;102455.88;5053309;28;20534;-48
2023/01/03 00:12:49;;;;;;;60.53;30.70;;;;;;;4.24;100.00;102452.56;5052221;28;20521;-48
2023/01/03 00:15:15;;;;;;;65.97;30.98;;;;;;;4.16;100.00;102451.06;5053254;28;20044;-48
2023/01/03 00:17:41;;;;;;;75.47;39.17;;;;;;;4.12;100.00;102449.03;5053216;28;20081;-49
2023/01/03 00:20:08;;;;;;;71.90;37.65;;;;;;;4.07;100.00;102446.09;5052505;28;20480;-46
2023/01/03 00:22:34;;;;;;;58.20;33.20;;;;;;;4.04;100.00;102450.03;5052929;28;20029;-47
2023/01/03 00:24:59;;;;;;;62.85;34.58;;;;;;;3.97;100.00;102450.31;5053007;28;20032;-49
2023/01/03 00:27:25;;;;;;;67.72;33.47;;;;;;;3.93;100.00;102450.06;5052348;28;20021;-50
2023/01/03 00:29:50;;;;;;;65.55;36.50;;;;;;;3.92;100.00;102447.38;5052692;28;20453;-47
2023/01/03 00:32:16;;;;;;;83.45;38.53;;;;;;;3.85;100.00;102452.72;5053137;28;20033;-49
2023/01/03 00:34:43;;;;;;;95.40;47.67;;;;;;;3.75;100.00;102457.06;5051863;28;20036;-49
2023/01/03 00:37:08;;;;;;;124.30;63.00;;;;;;;3.73;100.00;102457.72;5053033;28;20051;-48
2023/01/03 00:39:34;;;;;;;93.88;49.47;;;;;;;3.74;100.00;102459.50;5051973;28;20468;-46
2023/01/03 00:41:59;;;;;;;136.73;66.15;;;;;;;3.68;100.00;102453.88;5052797;28;20028;-47
2023/01/03 00:44:26;;;;;;;114.80;57.70;;;;;;;3.59;100.00;102462.56;5053062;28;20025;-48
2023/01/03 00:46:51;;;;;;;102.82;54.72;;;;;;;3.55;100.00;102463.09;5052050;28;20090;-49
2023/01/03 00:49:16;;;;;;;97.68;55.17;;;;;;;3.53;100.00;102469.69;5052984;28;20029;-48
2023/01/03 00:51:42;;;;;;;91.28;47.05;;;;;;;3.48;100.00;102470.09;5052535;28;20029;-48
2023/01/03 00:54:09;;;;;;;88.65;52.40;;;;;;;3.41;100.00;102466.13;5052075;28;20389;-49
2023/01/03 00:56:38;;;;;;;78.43;45.65;;;;;;;3.42;100.00;102468.78;5052279;28;20071;-48
2023/01/03 00:59:04;;;;;;;85.82;47.90;;;;;;;3.41;100.00;102468.69;5052632;28;20094;-47
2023/01/03 01:01:33;;;;;;;83.40;46.10;;;;;;;3.33;100.00;102472.22;5051398;28;20489;-47
2023/01/03 01:04:11;;;;;;;72.75;39.30;;;;;;;3.34;100.00;102466.34;5052920;28;20021;-49
2023/01/03 01:06:45;;;;;;;76.80;40.33;;;;;;;3.34;100.00;102468.91;5052521;28;20025;-49
2023/01/03 01:09:13;;;;;;;76.97;39.22;;;;;;;3.28;100.00;102467.63;5051923;28;20047;-50
2023/01/03 01:11:39;;;;;;;74.00;40.40;;;;;;;3.25;100.00;102477.56;5052458;28;20116;-45
2023/01/03 01:14:18;;;;;;;77.57;43.67;;;;;;;3.26;100.00;102479.31;5052563;28;20104;-44
2023/01/03 01:16:55;;;;;;;75.18;42.13;;;;;;;3.28;100.00;102482.03;5051681;28;20395;-44
2023/01/03 01:19:32;;;;;;;79.13;41.00;;;;;;;3.24;100.00;102485.97;5052677;28;20021;-48
2023/01/03 01:21:57;;;;;;;74.13;41.58;;;;;;;3.23;100.00;102498.56;5051967;28;20040;-47
2023/01/03 01:24:23;;;;;;;72.07;39.55;;;;;;;3.21;100.00;102500.09;5052551;28;20025;-49
2023/01/03 01:26:50;;;;;;;70.60;40.50;;;;;;;3.15;100.00;102508.09;5052279;28;20041;-47
2023/01/03 01:29:16;;;;;;;72.38;40.92;;;;;;;3.11;100.00;102500.94;5051769;28;20029;-49
2023/01/03 01:31:43;;;;;;;69.65;41.28;;;;;;;3.10;100.00;102504.28;5052201;28;20040;-48
2023/01/03 01:34:09;;;;;;;73.75;39.33;;;;;;;3.05;100.00;102508.94;5052334;28;20040;-48
2023/01/03 01:36:36;;;;;;;80.20;42.38;;;;;;;3.05;100.00;102508.94;5051231;28;20484;-45
2023/01/03 01:39:08;;;;;;;80.72;41.60;;;;;;;2.97;100.00;102505.75;5052296;28;20025;-48
2023/01/03 01:44:39;;;;;;;78.95;41.25;;;;;;;2.91;100.00;102510.28;5051739;28;20091;-48
2023/01/03 01:47:13;;;;;;;75.82;39.88;;;;;;;2.83;100.00;102513.84;5052113;28;20078;-49
2023/01/03 01:49:40;;;;;;;76.47;42.05;;;;;;;2.76;100.00;102516.59;5052223;28;20108;-48
2023/01/03 01:52:05;;;;;;;70.50;40.80;;;;;;;2.72;100.00;102522.16;5051652;28;20071;-49
2023/01/03 01:54:31;;;;;;;85.38;43.80;;;;;;;2.70;100.00;102527.13;5051986;28;20037;-49
2023/01/03 01:56:56;;;;;;;84.78;44.22;;;;;;;2.67;100.00;102533.59;5051450;28;20064;-46
2023/01/03 01:59:21;;;;;;;83.50;43.90;;;;;;;2.69;100.00;102532.09;5052385;28;20111;-48
2023/01/03 02:01:48;;;;;;;96.22;44.80;;;;;;;2.67;100.00;102538.69;5051719;28;20094;-48
2023/01/03 02:04:36;;;;;;;86.13;45.13;;;;;;;2.63;100.00;102538.44;5054877;28;20037;-49
2023/01/03 02:07:02;;;;;;;81.95;44.35;;;;;;;2.54;100.00;102537.59;5055927;28;20063;-47
2023/01/03 02:09:31;;;;;;;94.20;45.72;;;;;;;2.52;100.00;102539.13;5055366;28;20491;-46
2023/01/03 02:15:19;;;;;;;90.80;45.53;;;;;;;2.44;100.00;102527.34;5055552;28;20375;-47
2023/01/03 02:17:53;;;;;;;85.05;47.17;;;;;;;2.41;100.00;102529.63;5055248;28;20057;-47
2023/01/03 02:20:29;;;;;;;86.05;46.78;;;;;;;2.40;100.00;102532.91;5054949;28;20037;-48
2023/01/03 02:23:39;;;;;;;84.88;47.42;;;;;;;2.37;100.00;102537.75;5055601;28;20061;-47
2023/01/03 02:26:10;;;;;;;81.45;44.85;;;;;;;2.33;100.00;102538.22;5054538;28;20479;-48
2023/01/03 02:28:57;;;;;;;92.25;47.38;;;;;;;2.33;100.00;102535.69;5055220;28;20029;-48
2023/01/03 02:31:49;;;;;;;98.03;48.57;;;;;;;2.32;100.00;102538.97;5055314;28;20472;-46
2023/01/03 02:34:20;;;;;;;101.38;50.72;;;;;;;2.35;100.00;102531.59;5054354;28;20853;-46
2023/01/03 02:37:01;;;;;;;106.78;51.10;;;;;;;2.34;100.00;102529.81;5054844;28;20053;-49
2023/01/03 02:39:41;;;;;;;109.68;52.40;;;;;;;2.33;100.00;102528.03;5054439;28;20056;-48
2023/01/03 02:45:15;;;;;;;102.53;50.65;;;;;;;2.32;100.00;102536.44;5055315;28;20051;-49
2023/01/03 02:47:49;;;;;;;97.97;52.22;;;;;;;2.33;100.00;102522.97;5054197;28;20029;-48
2023/01/03 02:50:15;;;;;;;99.40;51.05;;;;;;;2.34;100.00;102527.25;5055061;28;20032;-45
2023/01/03 02:52:43;;;;;;;111.80;55.13;;;;;;;2.39;100.00;102531.13;5054636;28;20028;-48
2023/01/03 02:55:18;;;;;;;97.38;50.50;;;;;;;2.37;100.00;102527.56;5054026;28;20429;-44
2023/01/03 02:57:52;;;;;;;102.10;51.38;;;;;;;2.32;100.00;102528.78;5054707;28;20108;-48
2023/01/03 03:00:21;;;;;;;106.97;51.45;;;;;;;2.32;100.00;102518.63;5054220;28;20029;-47
2023/01/03 03:02:53;;;;;;;103.15;52.30;;;;;;;2.33;100.00;102520.41;5054388;28;20045;-49
2023/01/03 03:05:27;;;;;;;106.93;51.00;;;;;;;2.32;100.00;102529.69;5054704;28;20063;-48
2023/01/03 03:07:52;;;;;;;97.13;49.15;;;;;;;2.25;100.00;102528.25;5053688;28;20036;-49
2023/01/03 03:13:44;;;;;;;102.25;49.80;;;;;;;2.28;100.00;102528.50;5054783;28;20032;-48
2023/01/03 03:16:46;;;;;;;100.45;48.53;;;;;;;2.21;100.00;102535.44;5031108;28;20163;-47
2023/01/03 03:24:48;;;;;;;105.07;49.90;;;;;;;2.23;100.00;102539.91;5054254;28;20036;-48
2023/01/03 03:24:50;;;;;;;97.95;47.60;;;;;;;2.14;100.00;102539.09;5053798;28;20393;-49
2023/01/03 03:30:10;;;;;;;92.75;46.22;;;;;;;2.16;100.00;102529.03;5053624;28;20448;-48
2023/01/03 03:32:40;;;;;;;97.47;46.35;;;;;;;2.13;100.00;102527.13;5053794;28;20017;-49
2023/01/03 03:35:09;;;;;;;94.93;45.38;;;;;;;2.10;100.00;102532.81;5054182;28;20083;-47
2023/01/03 03:37:38;;;;;;;93.05;45.50;;;;;;;2.11;100.00;102528.66;5053196;28;20017;-48
2023/01/03 03:46:06;;;;;;;97.60;45.70;;;;;;;2.10;100.00;102520.09;5053888;28;20470;-50
2023/01/03 03:51:28;;;;;;;92.05;44.60;;;;;;;2.14;100.00;102519.66;5053284;28;20164;-47
2023/01/03 03:53:56;;;;;;;89.32;44.35;;;;;;;2.14;100.00;102523.81;5053577;28;20021;-48
2023/01/03 03:56:27;;;;;;;99.72;45.85;;;;;;;2.13;100.00;102529.66;5053829;28;20025;-49
2023/01/03 03:58:57;;;;;;;98.55;46.28;;;;;;;2.18;100.00;102530.09;5053200;28;20064;-46
2023/01/03 04:01:25;;;;;;;91.45;44.40;;;;;;;2.15;100.00;102530.69;5053467;28;20060;-47
2023/01/03 04:03:54;;;;;;;89.72;43.97;;;;;;;2.15;100.00;102540.88;5052632;28;20028;-44
2023/01/03 04:06:25;;;;;;;87.78;42.15;;;;;;;2.10;100.00;102547.19;5053590;28;20170;-49
2023/01/03 04:08:50;;;;;;;98.40;45.10;;;;;;;2.12;100.00;102540.63;5053381;28;20040;-48
2023/01/03 04:11:16;;;;;;;91.47;43.28;;;;;;;2.10;100.00;102543.00;5052570;28;20404;-48
2023/01/03 04:13:41;;;;;;;99.00;42.58;;;;;;;2.10;100.00;102542.09;5053074;28;20025;-48
2023/01/03 04:16:06;;;;;;;95.03;42.63;;;;;;;2.12;100.00;102541.50;5053291;28;20024;-48
2023/01/03 04:18:32;;;;;;;84.60;43.78;;;;;;;2.13;100.00;102529.66;5052373;28;20047;-46
2023/01/03 04:20:58;;;;;;;88.60;44.75;;;;;;;2.13;100.00;102527.13;5053467;28;20028;-49
2023/01/03 04:23:23;;;;;;;92.20;43.33;;;;;;;2.11;100.00;102531.19;5053360;28;20025;-48
2023/01/03 04:25:49;;;;;;;95.38;43.53;;;;;;;2.12;100.00;102533.88;5051904;28;20106;-47
2023/01/03 04:28:15;;;;;;;81.78;42.10;;;;;;;2.13;100.00;102525.47;5053268;28;20021;-44
2023/01/03 04:30:40;;;;;;;90.70;43.53;;;;;;;2.11;100.00;102523.56;5052728;28;20124;-49
2023/01/03 04:33:05;;;;;;;91.88;44.42;;;;;;;2.11;100.00;102528.66;5052160;28;20072;-44
2023/01/03 04:35:31;;;;;;;96.55;43.28;;;;;;;2.12;100.00;102530.44;5052911;28;20025;-47
2023/01/03 04:37:57;;;;;;;85.60;42.50;;;;;;;2.11;100.00;102531.19;5052939;28;20028;-49
2023/01/03 04:40:23;;;;;;;82.32;42.28;;;;;;;2.07;100.00;102530.00;5052260;28;20056;-46
2023/01/03 04:45:32;;;;;;;85.85;41.10;;;;;;;2.02;100.00;102538.88;5052692;28;20120;-49
2023/01/03 04:47:57;;;;;;;84.55;40.97;;;;;;;2.01;100.00;102541.28;5052347;28;20439;-49
2023/01/03 04:50:22;;;;;;;85.80;43.17;;;;;;;2.00;100.00;102537.81;5053013;28;20405;-48
2023/01/03 04:52:47;;;;;;;93.38;44.75;;;;;;;2.00;100.00;102535.28;5051774;28;20034;-49
2023/01/03 04:55:13;;;;;;;101.13;45.70;;;;;;;2.00;100.00;102535.28;5052890;28;20013;-49
2023/01/03 04:57:38;;;;;;;99.00;46.55;;;;;;;2.00;100.00;102539.47;5052498;28;20094;-48
2023/01/03 05:00:04;;;;;;;92.03;45.47;;;;;;;2.05;100.00;102540.78;5051982;28;20120;-48
2023/01/03 05:02:29;;;;;;;87.28;46.33;;;;;;;1.98;100.00;102545.31;5052234;28;20103;-49
2023/01/03 05:04:55;;;;;;;90.80;42.45;;;;;;;1.87;100.00;102542.53;5052551;28;20029;-49
2023/01/03 05:07:20;;;;;;;80.53;42.03;;;;;;;1.80;100.00;102539.44;5051994;28;20457;-47
2023/01/03 05:09:45;;;;;;;84.68;41.63;;;;;;;1.81;100.00;102540.34;5052261;28;20025;-47
2023/01/03 05:12:11;;;;;;;98.60;46.67;;;;;;;1.84;100.00;102538.06;5052679;28;20025;-47
2023/01/03 05:14:40;;;;;;;108.72;50.15;;;;;;;1.84;100.00;102527.91;5051638;28;20160;-49
2023/01/03 05:17:06;;;;;;;115.82;52.15;;;;;;;1.96;100.00;102520.50;5052531;28;20028;-48
2023/01/03 05:19:31;;;;;;;115.97;53.75;;;;;;;1.95;100.00;102517.06;5052496;28;20036;-49
2023/01/03 05:27:24;;;;;;;108.55;52.40;;;;;;;1.93;100.00;102530.41;5052850;28;20095;-49
2023/01/03 05:29:52;;;;;;;121.05;54.67;;;;;;;1.90;100.00;102525.94;5051639;28;20021;-48
2023/01/03 05:32:18;;;;;;;113.97;53.05;;;;;;;1.85;100.00;102524.59;5052319;28;20465;-48
2023/01/03 05:34:43;;;;;;;119.63;53.85;;;;;;;1.87;100.00;102523.09;5052158;28;20071;-47
2023/01/03 05:37:08;;;;;;;115.65;53.00;;;;;;;1.76;100.00;102521.22;5052128;28;20021;-44
2023/01/03 05:39:34;;;;;;;120.35;52.10;;;;;;;1.75;100.00;102517.78;5055892;28;20040;-49
2023/01/03 05:41:59;;;;;;;116.75;53.63;;;;;;;1.79;100.00;102524.91;5055571;28;20100;-47
2023/01/03 05:44:30;;;;;;;131.25;55.72;;;;;;;1.77;100.00;102516.28;5056309;28;20095;-48
2023/01/03 05:46:56;;;;;;;126.70;52.10;;;;;;;1.79;100.00;102509.66;5056371;28;20025;-48
2023/01/03 05:49:22;;;;;;;113.80;55.15;;;;;;;1.83;100.00;102509.97;5055518;28;20041;-49
2023/01/03 05:51:47;;;;;;;112.78;52.33;;;;;;;1.79;100.00;102499.50;5055917;28;20111;-47
2023/01/03 05:54:14;;;;;;;121.78;52.35;;;;;;;1.84;100.00;102506.69;5055928;28;20013;-48
2023/01/03 05:56:39;;;;;;;108.33;52.87;;;;;;;1.81;100.00;102502.22;5054850;28;20159;-49
2023/01/03 05:59:06;;;;;;;116.57;50.60;;;;;;;1.79;100.00;102508.78;5056071;28;20013;-49
2023/01/03 06:01:32;;;;;;;98.57;47.33;;;;;;;1.61;100.00;102519.06;5055624;28;20037;-48
2023/01/03 06:03:57;;;;;;;105.40;47.65;;;;;;;1.63;100.00;102520.09;5055138;28;20032;-49
2023/01/03 06:06:22;;;;;;;92.88;46.63;;;;;;;1.55;100.00;102523.56;5055777;28;20086;-45
2023/01/03 06:08:48;;;;;;;92.25;45.83;;;;;;;1.47;100.00;102511.78;5055444;28;20025;-45
2023/01/03 06:11:14;;;;;;;101.63;44.70;;;;;;;1.51;100.00;102507.88;5054824;28;20070;-49
2023/01/03 06:13:40;;;;;;;102.10;48.55;;;;;;;1.54;100.00;102509.06;5055311;28;20029;-46
2023/01/03 06:18:52;;;;;;;109.57;50.35;;;;;;;1.62;100.00;102495.41;5055083;28;20047;-48
2023/01/03 06:21:17;;;;;;;108.95;49.70;;;;;;;1.70;100.00;102497.78;5055431;28;20025;-50
2023/01/03 06:23:46;;;;;;;109.00;51.08;;;;;;;1.80;100.00;102500.41;5055059;28;20064;-47
2023/01/03 06:26:17;;;;;;;109.00;49.72;;;;;;;1.78;100.00;102500.28;5054574;28;20392;-48
2023/01/03 06:28:42;;;;;;;110.38;51.10;;;;;;;1.85;100.00;102499.19;5054951;28;20519;-48
2023/01/03 06:31:08;;;;;;;115.60;51.78;;;;;;;1.88;100.00;102499.44;5055432;28;20025;-47
2023/01/03 06:33:34;;;;;;;106.85;51.60;;;;;;;1.90;100.00;102485.25;5054318;28;20126;-47
2023/01/03 06:36:04;;;;;;;113.75;49.40;;;;;;;1.96;100.00;102503.59;5055154;28;20033;-49
2023/01/03 06:38:30;;;;;;;106.55;49.90;;;;;;;2.01;100.00;102493.84;5053945;28;20036;-48
2023/01/03 06:40:55;;;;;;;111.93;52.00;;;;;;;2.06;100.00;102491.72;5055278;28;20031;-49
2023/01/03 06:43:20;;;;;;;127.47;50.83;;;;;;;2.12;100.00;102485.53;5055273;28;20469;-50
2023/01/03 06:54:02;;;;;;;101.07;47.30;;;;;;;2.19;100.00;102486.09;5054643;28;20039;-48
2023/01/03 06:56:27;;;;;;;98.25;46.95;;;;;;;2.16;100.00;102481.63;5053494;28;20013;-46
2023/01/03 06:58:53;;;;;;;102.32;45.78;;;;;;;2.18;100.00;102476.66;5054765;28;20477;-46
2023/01/03 07:01:19;;;;;;;105.22;46.28;;;;;;;2.22;100.00;102487.28;5053976;28;20045;-48
2023/01/03 07:03:44;;;;;;;105.18;47.65;;;;;;;2.27;100.00;102469.84;5054396;28;20377;-49
2023/01/03 07:06:09;;;;;;;96.43;45.67;;;;;;;2.35;100.00;102462.91;5054790;28;20037;-48
2023/01/03 07:08:35;;;;;;;95.68;44.08;;;;;;;2.34;100.00;102462.03;5053678;28;20049;-49
2023/01/03 07:11:00;;;;;;;95.82;45.67;;;;;;;2.39;100.00;102459.88;5054525;28;20457;-49
2023/01/03 07:16:14;;;;;;;90.75;42.85;;;;;;;2.39;100.00;102480.22;5054825;28;20075;-49
2023/01/03 07:18:39;;;;;;;88.43;40.92;;;;;;;2.36;100.00;102474.88;5054321;28;20025;-49
2023/01/03 07:21:06;;;;;;;89.13;42.88;;;;;;;2.42;100.00;102493.25;5053772;28;20021;-48
2023/01/03 07:23:31;;;;;;;87.32;43.72;;;;;;;2.46;100.00;102513.13;5053969;28;20480;-48
2023/01/03 07:25:57;;;;;;;97.22;45.50;;;;;;;2.55;100.00;102523.22;5054242;28;20033;-49
2023/01/03 07:28:22;;;;;;;106.50;45.40;;;;;;;2.59;100.00;102517.66;5053585;28;20104;-47
2023/01/03 07:30:47;;;;;;;97.28;44.13;;;;;;;2.69;100.00;102514.28;5053762;28;20036;-49
2023/01/03 07:33:14;;;;;;;99.47;44.72;;;;;;;2.75;100.00;102512.25;5054202;28;20025;-48
2023/01/03 07:35:40;;;;;;;93.30;44.17;;;;;;;2.89;100.00;102506.75;5053014;28;20443;-49
2023/01/03 07:38:07;;;;;;;93.03;43.83;;;;;;;2.99;100.00;102497.34;5054021;28;20541;-49
2023/01/03 07:40:32;;;;;;;99.65;43.08;;;;;;;3.09;100.00;102495.72;5053603;28;20021;-49
2023/01/03 07:45:43;;;;;;;99.00;43.45;;;;;;;3.33;100.00;102500.25;5053456;28;20040;-44
2023/01/03 07:48:09;;;;;;;98.78;43.78;;;;;;;3.41;100.00;102510.34;5053897;28;20029;-49
2023/01/03 07:50:35;;;;;;;92.60;43.25;;;;;;;3.53;100.00;102505.38;5052772;28;20021;-47
2023/01/03 07:53:01;;;;;;;101.05;43.13;;;;;;;3.59;100.00;102505.91;5053599;28;20376;-49
2023/01/03 07:55:27;;;;;;;101.15;45.30;;;;;;;3.66;100.00;102508.97;5053749;28;20027;-48
2023/01/03 07:57:54;;;;;;;102.07;45.65;;;;;;;3.70;100.00;102513.56;5052995;28;20021;-45
2023/01/03 08:00:19;;;;;;;97.22;42.38;;;;;;;3.73;100.00;102517.28;5053191;28;20058;-49
2023/01/03 08:02:44;;;;;;;94.72;42.08;;;;;;;3.78;100.00;102520.19;5052281;28;20428;-48
2023/01/03 08:05:10;;;;;;;95.85;42.47;;;;;;;3.79;100.00;102522.00;5053632;28;20377;-49
2023/01/03 08:07:35;;;;;;;95.55;41.28;;;;;;;3.84;100.00;102523.28;5053057;28;20086;-47
2023/01/03 08:15:28;;;;;;;88.57;41.05;;;;;;;3.93;100.00;102538.47;5053525;28;20035;-49
2023/01/03 08:17:53;;;;;;;86.30;40.53;;;;;;;3.97;100.00;102537.94;5052590;28;20021;-46
2023/01/03 08:20:19;;;;;;;92.65;43.03;;;;;;;3.99;100.00;102532.97;5053148;28;20037;-50
2023/01/03 08:22:44;;;;;;;93.47;42.28;;;;;;;4.04;100.00;102541.91;5053128;28;20460;-49
2023/01/03 08:25:09;;;;;;;96.18;43.15;;;;;;;4.07;100.00;102547.28;5052291;28;20039;-49
2023/01/03 08:27:34;;;;;;;90.53;42.22;;;;;;;4.08;100.00;102549.94;5052962;28;20051;-45
2023/01/03 08:30:00;;;;;;;85.47;42.38;;;;;;;4.12;100.00;102553.66;5053186;28;20021;-48
2023/01/03 08:32:26;;;;;;;89.13;42.25;;;;;;;4.17;100.00;102554.03;5052312;28;20522;-49
2023/01/03 08:34:53;;;;;;;94.22;43.35;;;;;;;4.19;100.00;102548.28;5052823;28;20111;-48
2023/01/03 08:37:19;;;;;;;104.50;46.17;;;;;;;4.23;100.00;102544.31;5052929;28;20476;-49
2023/01/03 08:39:54;;;;;;;94.70;45.22;;;;;;;4.27;100.00;102551.47;5052014;28;20293;-49
2023/01/03 08:42:22;;;;;;;105.40;44.22;;;;;;;4.30;100.00;102556.84;5053022;28;20025;-48
2023/01/03 08:44:48;;;;;;;;;;;;;;;4.37;100.00;102555.69;5052863;28;20033;-47
2023/01/03 08:47:14;;;;;;;87.18;43.00;;;;;;;4.36;100.00;102557.31;5052124;28;20284;-50
2023/01/03 08:49:40;;;;;;;94.38;42.72;;;;;;;4.40;100.00;102553.38;5052705;28;20032;-49
2023/01/03 08:52:06;;;;;;;101.03;44.42;;;;;;;4.44;100.00;102560.50;5052216;28;20021;-50
2023/01/03 08:54:31;;;;;;;101.22;45.53;;;;;;;4.47;100.00;102564.97;5052623;28;20036;-49
2023/01/03 08:56:56;;;;;;;101.68;46.00;;;;;;;4.51;100.00;102561.94;5052652;28;20036;-48
2023/01/03 08:59:22;;;;;;;95.68;41.92;;;;;;;4.52;100.00;102569.72;5051979;28;20048;-49
2023/01/03 09:01:48;;;;;;;94.75;45.17;;;;;;;4.57;100.00;102570.06;5052133;28;20055;-49
2023/01/03 09:04:13;;;;;;;92.80;42.55;;;;;;;4.59;100.00;102566.88;5052816;28;20021;-50
2023/01/03 09:06:38;;;;;;;94.72;42.65;;;;;;;4.61;100.00;102570.44;5051496;28;20115;-49
2023/01/03 09:09:06;;;;;;;92.97;41.55;;;;;;;4.66;100.00;102568.28;5052796;28;20476;-50
2023/01/03 09:11:31;;;;;;;95.82;41.17;;;;;;;4.69;100.00;102572.75;5052295;28;20482;-49
2023/01/03 09:13:56;;;;;;;94.97;42.83;;;;;;;4.72;100.00;102575.53;5055198;28;20017;-48
2023/01/03 09:16:21;;;;;;;98.07;43.55;;;;;;;4.75;100.00;102573.22;5056572;28;20090;-49
2023/01/03 09:18:47;;;;;;;98.68;43.78;;;;;;;4.78;100.00;102578.59;5056214;28;20033;-47
2023/01/03 09:21:12;;;;;;;92.78;42.53;;;;;;;4.81;100.00;102575.41;5055812;28;20017;-49
2023/01/03 09:23:37;;;;;;;95.88;44.67;;;;;;;4.84;100.00;102573.06;5056420;28;20032;-45
2023/01/03 09:26:04;;;;;;;100.50;43.15;;;;;;;4.88;100.00;102575.09;5056582;28;20112;-48
2023/01/03 09:28:29;;;;;;;103.70;45.70;;;;;;;4.90;100.00;102577.00;5055540;28;20349;-49
2023/01/03 09:30:55;;;;;;;102.43;45.80;;;;;;;4.95;100.00;102573.16;5056598;28;20021;-48
2023/01/03 09:33:20;;;;;;;95.70;44.08;;;;;;;4.97;100.00;102567.28;5056492;28;20033;-49
2023/01/03 09:35:46;;;;;;;98.97;44.05;;;;;;;5.01;100.00;102570.22;5055272;28;20040;-49
2023/01/03 09:38:11;;;;;;;90.50;44.22;;;;;;;5.04;100.00;102577.25;5056287;28;20021;-48
2023/01/03 09:40:39;;;;;;;93.13;42.97;;;;;;;5.07;100.00;102567.25;5055936;28;20071;-47
2023/01/03 09:43:11;;;;;;;96.88;43.08;;;;;;;5.09;100.00;102569.16;5055340;28;20372;-49
2023/01/03 09:45:38;;;;;;;89.57;42.10;;;;;;;5.13;100.00;102567.75;5055746;28;20083;-49
2023/01/03 09:48:05;;;;;;;83.27;38.90;;;;;;;5.16;100.00;102573.09;5056243;28;20064;-49
2023/01/03 09:50:34;;;;;;;88.93;39.28;;;;;;;5.20;100.00;102575.16;5055140;28;20029;-50
2023/01/03 10:04:29;;;;;;;81.88;36.78;;;;;;;5.37;100.00;102566.25;5055399;28;20040;-48
2023/01/03 10:07:17;;;;;;;80.32;37.05;;;;;;;5.40;100.00;102580.94;5055874;28;20033;-49
2023/01/03 10:10:00;;;;;;;72.85;35.45;;;;;;;5.42;100.00;102569.16;5054643;28;20036;-49
2023/01/03 10:12:51;;;;;;;76.50;35.22;;;;;;;5.49;100.00;102567.94;5055705;28;20043;-48
2023/01/03 10:15:36;;;;;;;87.35;36.47;;;;;;;5.57;100.00;102566.91;5055750;28;20033;-46
2023/01/03 10:18:12;;;;;;;74.85;34.38;;;;;;;5.58;100.00;102561.03;5054878;28;20067;-49
2023/01/03 10:21:25;;;;;;;68.60;34.10;;;;;;;5.65;100.00;102564.94;5055100;28;20420;-50
2023/01/03 10:23:52;;;;;;;72.95;34.08;;;;;;;5.68;100.00;102567.72;5044046;28;20045;-50
2023/01/03 10:26:18;;;;;;;60.00;31.48;;;;;;;5.70;100.00;102569.63;5055429;28;20025;-49
2023/01/03 10:28:44;;;;;;;68.93;31.92;;;;;;;5.74;100.00;102569.09;5055099;28;20025;-49
2023/01/03 10:31:26;;;;;;;94.07;33.67;;;;;;;5.78;100.00;102562.53;5054524;28;20060;-49
2023/01/03 10:33:52;;;;;;;88.78;32.67;;;;;;;5.83;100.00;102561.22;5055118;28;20029;-48
2023/01/03 10:36:20;;;;;;;73.88;30.52;;;;;;;5.87;100.00;102572.59;5055324;28;20021;-51
2023/01/03 10:38:46;;;;;;;59.38;29.02;;;;;;;5.93;100.00;102563.72;5054242;28;20068;-49
2023/01/03 10:41:32;;;;;;;58.20;30.60;;;;;;;5.97;100.00;102566.53;5055171;28;20079;-50
2023/01/03 10:44:02;;;;;;;62.17;34.28;;;;;;;5.97;100.00;102553.72;5055076;28;20025;-52
2023/01/03 10:46:29;;;;;;;57.53;28.75;;;;;;;5.99;100.00;102549.63;5054297;28;20052;-52
2023/01/03 10:49:10;;;;;;;69.20;30.17;;;;;;;6.03;100.00;102549.09;5055157;28;20057;-52
2023/01/03 10:51:42;;;;;;;53.65;27.98;;;;;;;6.04;100.00;102553.44;5054209;28;20021;-52
2023/01/03 10:54:18;;;;;;;58.50;29.55;;;;;;;6.08;100.00;102545.19;5054851;28;20404;-51
2023/01/03 10:56:45;;;;;;;53.72;31.63;;;;;;;6.11;100.00;102553.13;5054524;28;20053;-52
2023/01/03 10:59:16;;;;;;;56.00;30.70;;;;;;;6.14;100.00;102548.22;5053914;28;20099;-50
2023/01/03 11:02:00;;;;;;;57.88;30.85;;;;;;;6.21;100.00;102550.47;5054327;28;20362;-53
2023/01/03 11:04:27;;;;;;;60.00;31.45;;;;;;;6.28;100.00;102545.81;5054745;28;20029;-52
2023/01/03 11:06:59;;;;;;;48.43;24.70;;;;;;;6.30;100.00;102557.06;5053697;28;20031;-51
2023/01/03 11:09:31;;;;;;;44.33;24.33;;;;;;;6.29;100.00;102552.69;5054736;28;20063;-52
2023/01/03 11:12:32;;;;;;;46.15;23.73;;;;;;;6.32;100.00;102558.06;5054766;28;20057;-52
2023/01/03 11:14:57;;;;;;;70.00;32.55;;;;;;;6.31;100.00;102562.28;5046694;28;20044;-52
2023/01/03 11:17:25;;;;;;;46.95;21.88;;;;;;;6.29;100.00;102551.06;5054566;28;20017;-52
2023/01/03 11:19:51;;;;;;;43.83;22.63;;;;;;;6.29;100.00;102550.16;5053579;28;20044;-52
2023/01/03 11:22:40;;;;;;;59.08;24.02;;;;;;;6.30;100.00;102546.81;5054517;28;20070;-52
2023/01/03 11:25:35;;;;;;;48.50;23.35;;;;;;;6.29;100.00;102548.50;5054225;28;20029;-51
2023/01/03 11:28:27;;;;;;;53.45;23.15;;;;;;;6.26;100.00;102549.16;5053755;28;20045;-52
2023/01/03 11:31:29;;;;;;;50.13;22.95;;;;;;;6.28;100.00;102545.81;5054349;28;20037;-51
2023/01/03 11:34:19;;;;;;;49.45;23.88;;;;;;;6.28;100.00;102545.81;5053623;28;20025;-52
2023/01/03 11:36:58;;;;;;;47.45;23.55;;;;;;;6.25;100.00;102547.38;5053211;28;20103;-51
2023/01/03 11:39:49;;;;;;;52.72;23.63;;;;;;;6.25;100.00;102542.25;5054118;28;20096;-52
2023/01/03 11:42:28;;;;;;;51.13;24.08;;;;;;;6.25;100.00;102537.13;5049936;28;20110;-50
2023/01/03 11:45:31;;;;;;;52.70;24.52;;;;;;;6.28;100.00;102538.16;5053965;28;20052;-51
2023/01/03 11:48:33;;;;;;;47.47;21.98;;;;;;;6.32;100.00;102538.47;5053124;28;20102;-50
2023/01/03 11:51:07;;;;;;;55.38;25.13;;;;;;;6.34;100.00;102541.13;5053740;28;20385;-51
2023/01/03 11:53:37;;;;;;;46.17;23.88;;;;;;;6.36;100.00;102539.59;5053646;28;20056;-47
2023/01/03 11:56:08;;;;;;;46.08;22.80;;;;;;;6.36;100.00;102529.34;5052994;28;20020;-51
2023/01/03 11:58:52;;;;;;;46.30;23.85;;;;;;;6.38;100.00;102525.25;5053331;28;20025;-50
2023/01/03 12:01:24;;;;;;;50.13;23.80;;;;;;;6.38;100.00;102523.56;5053445;28;20183;-51
2023/01/03 12:03:55;;;;;;;54.70;24.05;;;;;;;6.41;100.00;102517.78;5052564;28;20369;-51
2023/01/03 12:06:28;;;;;;;49.55;24.65;;;;;;;6.43;100.00;102516.22;5053590;28;20049;-50
2023/01/03 12:09:09;;;;;;;43.53;21.83;;;;;;;6.48;100.00;102524.22;5052792;28;20029;-51
2023/01/03 12:12:07;;;;;;;40.17;20.73;;;;;;;6.48;100.00;102516.53;5053092;28;20051;-51
2023/01/03 12:14:39;;;;;;;40.25;20.02;;;;;;;6.50;100.00;102522.69;5053164;28;20025;-50
2023/01/03 12:17:17;;;;;;;31.55;16.38;;;;;;;6.69;100.00;102507.00;5052672;28;20120;-51
2023/01/03 12:19:48;;;;;;;22.58;11.98;;;;;;;6.79;100.00;102496.63;5053046;28;20040;-51
2023/01/03 12:22:35;;;;;;;22.50;10.98;;;;;;;6.91;100.00;102502.59;5053504;28;20032;-50
2023/01/03 12:25:19;;;;;;;30.83;10.82;;;;;;;6.98;100.00;102495.34;5052606;28;20031;-52
2023/01/03 12:27:51;;;;;;;32.20;12.07;;;;;;;7.12;100.00;102497.22;5053050;28;20032;-51